createdAt,value
2022-09-15T00:00:29.997Z,20.60
2022-09-15T00:02:56.873Z,20.42
2022-09-15T00:05:23.561Z,21.55
2022-09-15T00:07:50.176Z,21.80
2022-09-15T00:10:17.405Z,20.90
2022-09-15T00:12:44.473Z,25.27
2022-09-15T00:15:14.629Z,21.30
2022-09-15T00:17:42.682Z,24.77
2022-09-15T00:20:10.335Z,22.05
2022-09-15T00:22:37.091Z,23.00
2022-09-15T00:25:04.234Z,21.17
2022-09-15T00:27:32.359Z,22.83
2022-09-15T00:29:59.158Z,24.55
2022-09-15T00:32:26.132Z,21.60
2022-09-15T00:34:53.518Z,19.83
2022-09-15T00:37:20.694Z,24.65
2022-09-15T00:39:47.837Z,23.42
2022-09-15T00:42:18.983Z,25.58
2022-09-15T00:45:01.274Z,25.13
2022-09-15T00:47:32.600Z,21.98
2022-09-15T00:50:13.609Z,23.88
2022-09-15T00:52:57.750Z,24.63
2022-09-15T00:55:39.334Z,26.65
2022-09-15T00:58:11.304Z,20.20
2022-09-15T01:00:41.031Z,21.50
2022-09-15T01:05:42.992Z,24.52
2022-09-15T01:08:40.535Z,23.63
2022-09-15T01:11:07.594Z,23.52
2022-09-15T01:13:34.414Z,25.92
2022-09-15T01:16:38.579Z,19.67
2022-09-15T01:19:37.280Z,15.85
2022-09-15T01:22:17.319Z,15.70
2022-09-15T01:25:10.157Z,17.90
2022-09-15T01:28:11.116Z,16.15
2022-09-15T01:30:42.460Z,17.30
2022-09-15T01:33:51.895Z,11.73
2022-09-15T01:36:35.925Z,10.45
2022-09-15T01:39:16.815Z,13.98
2022-09-15T01:41:50.825Z,12.95
2022-09-15T01:44:27.768Z,5.50
2022-09-15T01:47:02.360Z,4.90
2022-09-15T01:49:38.952Z,7.32
2022-09-15T01:52:06.458Z,6.50
2022-09-15T01:54:39.817Z,7.35
2022-09-15T01:57:06.551Z,4.93
2022-09-15T01:59:34.562Z,7.32
2022-09-15T02:02:09.966Z,7.50
2022-09-15T02:04:39.475Z,6.13
2022-09-15T02:07:21.003Z,6.72
2022-09-15T02:09:57.414Z,6.22
2022-09-15T02:12:37.461Z,6.20
2022-09-15T02:15:14.938Z,5.57
2022-09-15T02:17:46.277Z,9.07
2022-09-15T02:20:47.945Z,6.55
2022-09-15T02:23:21.619Z,6.53
2022-09-15T02:25:53.738Z,7.20
2022-09-15T02:28:25.504Z,8.98
2022-09-15T02:30:55.926Z,10.45
2022-09-15T02:33:26.965Z,11.82
2022-09-15T02:35:53.959Z,8.00
2022-09-15T02:38:21.644Z,8.77
2022-09-15T02:40:48.397Z,8.38
2022-09-15T02:43:17.777Z,11.75
2022-09-15T02:45:44.770Z,14.90
2022-09-15T02:48:11.787Z,13.68
2022-09-15T02:50:39.232Z,13.68
2022-09-15T02:53:05.992Z,8.13
2022-09-15T02:55:33.013Z,11.05
2022-09-15T02:58:00.134Z,10.60
2022-09-15T03:00:28.323Z,11.55
2022-09-15T03:02:55.188Z,11.05
2022-09-15T03:05:25.032Z,12.25
2022-09-15T03:07:52.335Z,12.73
2022-09-15T03:10:19.354Z,12.90
2022-09-15T03:12:51.673Z,8.95
2022-09-15T03:15:21.325Z,11.63
2022-09-15T03:20:21.028Z,10.02
2022-09-15T03:22:49.485Z,10.77
2022-09-15T03:25:17.188Z,11.20
2022-09-15T03:27:43.909Z,10.20
2022-09-15T03:30:11.878Z,12.70
2022-09-15T03:32:38.630Z,16.90
2022-09-15T03:35:07.373Z,17.00
2022-09-15T03:37:34.064Z,13.88
2022-09-15T03:40:00.960Z,14.05
2022-09-15T03:42:27.767Z,8.88
2022-09-15T03:44:54.563Z,12.55
2022-09-15T03:47:21.282Z,25.42
2022-09-15T03:49:47.943Z,17.27
2022-09-15T03:52:14.694Z,20.25
2022-09-15T03:54:42.042Z,16.08
2022-09-15T03:57:08.699Z,20.85
2022-09-15T03:59:35.420Z,17.88
2022-09-15T04:02:02.148Z,10.45
2022-09-15T04:04:28.995Z,10.70
2022-09-15T04:06:55.606Z,18.70
2022-09-15T04:09:22.218Z,29.10
2022-09-15T04:11:48.905Z,34.30
2022-09-15T04:14:15.661Z,22.80
2022-09-15T04:16:42.346Z,15.18
2022-09-15T04:19:09.252Z,6.88
2022-09-15T04:21:35.900Z,9.15
2022-09-15T04:24:04.745Z,9.95
2022-09-15T04:26:34.351Z,9.93
2022-09-15T04:29:04.677Z,4.97
2022-09-15T04:31:32.113Z,6.97
2022-09-15T04:33:59.415Z,6.72
2022-09-15T04:36:28.391Z,9.57
2022-09-15T04:38:55.450Z,8.55
2022-09-15T04:41:22.511Z,11.80
2022-09-15T04:43:49.658Z,13.65
2022-09-15T04:46:16.943Z,10.00
2022-09-15T04:48:45.588Z,12.07
2022-09-15T04:51:20.468Z,10.93
2022-09-15T04:53:47.880Z,10.35
2022-09-15T04:56:17.056Z,12.75
2022-09-15T04:58:52.345Z,14.20
2022-09-15T05:01:24.781Z,14.48
2022-09-15T05:03:51.951Z,12.55
2022-09-15T05:06:21.775Z,12.05
2022-09-15T05:08:50.227Z,10.82
2022-09-15T05:11:17.680Z,13.05
2022-09-15T05:13:44.761Z,13.23
2022-09-15T05:16:13.411Z,13.40
2022-09-15T05:18:41.678Z,11.70
2022-09-15T05:21:09.674Z,9.95
2022-09-15T05:23:37.082Z,12.60
2022-09-15T05:26:06.624Z,12.48
2022-09-15T05:28:34.929Z,12.02
2022-09-15T05:31:02.388Z,11.32
2022-09-15T05:33:29.029Z,11.93
2022-09-15T05:35:58.317Z,12.85
2022-09-15T05:38:26.248Z,14.02
2022-09-15T05:40:53.221Z,15.82
2022-09-15T05:43:20.375Z,13.77
2022-09-15T05:45:56.123Z,10.68
2022-09-15T05:48:22.888Z,9.23
2022-09-15T05:50:51.357Z,9.70
2022-09-15T05:53:18.401Z,13.88
2022-09-15T05:55:45.643Z,9.57
2022-09-15T05:58:13.024Z,8.60
2022-09-15T06:00:41.502Z,10.07
2022-09-15T06:03:14.455Z,11.35
2022-09-15T06:05:41.768Z,9.70
2022-09-15T06:08:08.970Z,8.07
2022-09-15T06:10:35.925Z,7.70
2022-09-15T06:13:02.772Z,10.77
2022-09-15T06:15:29.400Z,7.40
2022-09-15T06:17:56.074Z,6.60
2022-09-15T06:20:23.154Z,6.72
2022-09-15T06:22:49.776Z,6.22
2022-09-15T06:25:16.530Z,8.10
2022-09-15T06:27:43.239Z,6.45
2022-09-15T06:30:10.677Z,8.95
2022-09-15T06:32:37.308Z,7.43
2022-09-15T06:35:07.843Z,7.38
2022-09-15T06:37:34.959Z,7.65
2022-09-15T06:40:02.322Z,9.45
2022-09-15T06:42:29.002Z,8.60
2022-09-15T06:44:56.338Z,6.65
2022-09-15T06:47:23.297Z,8.07
2022-09-15T06:49:50.022Z,5.68
2022-09-15T06:52:16.765Z,7.30
2022-09-15T06:54:43.399Z,3.67
2022-09-15T06:57:10.022Z,4.20
2022-09-15T06:59:36.611Z,5.25
2022-09-15T07:02:05.269Z,3.80
2022-09-15T07:04:33.591Z,3.13
2022-09-15T07:07:00.316Z,3.75
2022-09-15T07:09:26.983Z,3.63
2022-09-15T07:11:53.767Z,3.35
2022-09-15T07:14:20.346Z,3.72
2022-09-15T07:16:47.077Z,3.65
2022-09-15T07:19:13.880Z,4.55
2022-09-15T07:21:40.544Z,3.92
2022-09-15T07:24:07.806Z,3.80
2022-09-15T07:26:34.855Z,2.70
2022-09-15T07:29:04.324Z,3.17
2022-09-15T07:31:32.799Z,3.65
2022-09-15T07:34:00.983Z,3.20
2022-09-15T07:36:28.652Z,3.33
2022-09-15T07:38:55.313Z,3.80
2022-09-15T07:41:24.318Z,2.97
2022-09-15T07:43:53.155Z,3.88
2022-09-15T07:46:21.905Z,3.83
2022-09-15T07:48:51.325Z,4.87
2022-09-15T07:51:18.823Z,3.67
2022-09-15T07:53:47.133Z,4.05
2022-09-15T07:56:14.161Z,4.43
2022-09-15T07:58:40.904Z,4.05
2022-09-15T08:01:14.665Z,3.47
2022-09-15T08:03:48.821Z,3.45
2022-09-15T08:06:18.135Z,3.50
2022-09-15T08:08:45.145Z,4.03
2022-09-15T08:11:18.408Z,3.88
2022-09-15T08:13:47.001Z,3.80
2022-09-15T08:16:16.171Z,3.25
2022-09-15T08:18:44.028Z,3.20
2022-09-15T08:21:14.072Z,2.78
2022-09-15T08:23:41.162Z,2.35
2022-09-15T08:26:13.881Z,3.60
2022-09-15T08:28:41.642Z,3.92
2022-09-15T08:31:11.374Z,3.28
2022-09-15T08:33:41.820Z,4.78
2022-09-15T08:36:11.561Z,3.65
2022-09-15T08:38:44.237Z,3.28
2022-09-15T08:41:25.823Z,3.83
2022-09-15T08:44:00.969Z,4.07
2022-09-15T08:46:39.062Z,3.70
2022-09-15T08:49:27.022Z,3.30
2022-09-15T08:52:07.912Z,2.83
2022-09-15T08:54:34.724Z,2.95
2022-09-15T08:57:03.622Z,2.83
2022-09-15T08:59:35.689Z,3.10
2022-09-15T09:02:46.514Z,2.42
2022-09-15T09:05:32.323Z,2.55
2022-09-15T09:08:14.027Z,2.20
2022-09-15T09:10:54.091Z,2.88
2022-09-15T09:13:35.257Z,2.20
2022-09-15T09:16:09.412Z,2.50
2022-09-15T09:18:56.090Z,3.03
2022-09-15T09:21:27.704Z,3.35
2022-09-15T09:24:17.199Z,2.25
2022-09-15T09:26:49.543Z,2.90
2022-09-15T09:29:19.227Z,2.10
2022-09-15T09:34:35.410Z,4.50
2022-09-15T09:37:11.096Z,4.50
2022-09-15T09:39:37.953Z,5.70
2022-09-15T09:42:06.268Z,5.88
2022-09-15T09:44:34.061Z,5.43
2022-09-15T09:47:01.597Z,5.00
2022-09-15T09:49:34.275Z,5.03
2022-09-15T09:52:03.508Z,4.75
2022-09-15T09:54:33.274Z,4.68
2022-09-15T09:57:28.617Z,4.97
2022-09-15T09:59:55.454Z,5.40
2022-09-15T10:02:25.148Z,5.40
2022-09-15T10:05:12.917Z,5.60
2022-09-15T10:07:45.871Z,5.60
2022-09-15T10:10:32.818Z,5.43
2022-09-15T10:13:02.294Z,5.20
2022-09-15T10:15:34.772Z,5.25
2022-09-15T10:18:03.131Z,5.80
2022-09-15T10:20:35.636Z,5.00
2022-09-15T10:23:17.533Z,5.28
2022-09-15T10:25:58.605Z,5.00
2022-09-15T10:28:27.667Z,5.35
2022-09-15T10:31:04.779Z,5.72
2022-09-15T10:33:35.042Z,7.00
2022-09-15T10:36:31.456Z,5.95
2022-09-15T10:39:07.731Z,8.63
2022-09-15T10:41:46.395Z,7.35
2022-09-15T10:44:43.882Z,7.57
2022-09-15T10:47:30.305Z,8.27
2022-09-15T10:50:25.305Z,8.80
2022-09-15T10:53:10.578Z,8.43
2022-09-15T10:56:03.327Z,8.43
2022-09-15T10:58:45.093Z,10.40
2022-09-15T11:01:37.797Z,10.25
2022-09-15T11:04:15.880Z,11.20
2022-09-15T11:07:13.351Z,12.43
2022-09-15T11:09:57.587Z,14.55
2022-09-15T11:13:02.284Z,12.25
2022-09-15T11:16:07.430Z,10.45
2022-09-15T11:19:22.621Z,9.27
2022-09-15T11:22:37.085Z,10.35
2022-09-15T11:25:22.888Z,10.00
2022-09-15T11:27:55.136Z,9.05
2022-09-15T11:30:24.757Z,9.00
2022-09-15T11:35:46.183Z,8.50
2022-09-15T11:38:37.619Z,8.32
2022-09-15T11:41:18.702Z,9.00
2022-09-15T11:43:46.104Z,6.40
2022-09-15T11:46:23.565Z,7.13
2022-09-15T11:49:18.700Z,7.53
2022-09-15T11:51:54.491Z,7.45
2022-09-15T11:54:38.467Z,7.47
2022-09-15T11:57:06.055Z,5.97
2022-09-15T11:59:42.064Z,6.72
2022-09-15T12:02:23.001Z,6.63
2022-09-15T12:05:08.412Z,6.38
2022-09-15T12:07:56.569Z,7.13
2022-09-15T12:10:39.587Z,7.53
2022-09-15T12:13:11.000Z,7.53
2022-09-15T12:15:38.253Z,7.68
2022-09-15T12:18:46.984Z,7.63
2022-09-15T12:21:34.006Z,7.38
2022-09-15T12:24:16.987Z,9.52
2022-09-15T12:26:46.374Z,9.25
2022-09-15T12:29:42.096Z,9.48
2022-09-15T12:32:19.988Z,9.05
2022-09-15T12:35:09.042Z,8.98
2022-09-15T12:37:44.358Z,9.23
2022-09-15T12:40:29.760Z,9.50
2022-09-15T12:43:03.983Z,8.93
2022-09-15T12:45:35.826Z,8.32
2022-09-15T12:48:21.435Z,8.88
2022-09-15T12:50:59.597Z,7.07
2022-09-15T12:53:31.464Z,6.90
2022-09-15T12:56:05.417Z,6.40
2022-09-15T12:58:47.119Z,7.35
2022-09-15T13:01:22.993Z,7.68
2022-09-15T13:03:49.681Z,6.07
2022-09-15T13:06:22.172Z,6.53
2022-09-15T13:08:55.049Z,22.75
2022-09-15T13:11:34.536Z,27.75
2022-09-15T13:14:04.338Z,7.45
2022-09-15T13:19:23.404Z,8.45
2022-09-15T13:22:03.223Z,7.47
2022-09-15T13:24:46.069Z,6.63
2022-09-15T13:27:14.957Z,6.32
2022-09-15T13:29:52.326Z,6.18
2022-09-15T13:32:43.636Z,5.53
2022-09-15T13:35:42.320Z,5.60
2022-09-15T13:38:46.355Z,6.17
2022-09-15T13:41:33.266Z,5.50
2022-09-15T13:44:18.660Z,5.35
2022-09-15T13:47:04.399Z,5.28
2022-09-15T13:49:55.864Z,8.77
2022-09-15T13:53:00.339Z,5.65
2022-09-15T13:55:35.197Z,5.93
2022-09-15T14:01:04.903Z,5.22
2022-09-15T14:03:45.756Z,5.28
2022-09-15T14:06:22.880Z,5.05
2022-09-15T14:08:54.058Z,5.75
2022-09-15T14:11:30.468Z,5.28
2022-09-15T14:13:59.237Z,5.38
2022-09-15T14:16:39.189Z,5.10
2022-09-15T14:19:32.318Z,4.53
2022-09-15T14:22:00.059Z,5.13
2022-09-15T14:24:30.080Z,4.93
2022-09-15T14:27:07.251Z,4.47
2022-09-15T14:29:38.747Z,4.85
2022-09-15T14:32:05.590Z,4.97
2022-09-15T14:34:37.058Z,4.38
2022-09-15T14:37:19.550Z,4.30
2022-09-15T14:39:50.999Z,3.92
2022-09-15T14:42:22.855Z,4.20
2022-09-15T14:47:41.837Z,4.78
2022-09-15T14:50:18.265Z,4.65
2022-09-15T14:52:53.190Z,4.85
2022-09-15T14:55:28.204Z,4.72
2022-09-15T14:58:17.422Z,4.65
2022-09-15T15:00:59.100Z,4.30
2022-09-15T15:03:48.166Z,4.35
2022-09-15T15:06:28.920Z,4.55
2022-09-15T15:09:12.491Z,5.40
2022-09-15T15:11:41.720Z,4.97
2022-09-15T15:14:11.525Z,16.17
2022-09-15T15:16:51.821Z,8.77
2022-09-15T15:19:40.015Z,7.43
2022-09-15T15:22:21.560Z,6.20
2022-09-15T15:24:50.068Z,5.53
2022-09-15T15:27:35.243Z,6.25
2022-09-15T15:30:26.586Z,4.80
2022-09-15T15:32:54.836Z,5.57
2022-09-15T15:35:22.599Z,5.63
2022-09-15T15:37:59.275Z,5.35
2022-09-15T15:40:26.066Z,4.85
2022-09-15T15:42:57.869Z,4.60
2022-09-15T15:45:30.540Z,7.05
2022-09-15T15:47:57.558Z,4.78
2022-09-15T15:50:27.402Z,5.18
2022-09-15T15:52:54.489Z,4.45
2022-09-15T15:55:26.758Z,3.80
2022-09-15T15:57:54.969Z,5.00
2022-09-15T16:00:33.114Z,3.40
2022-09-15T16:03:00.803Z,4.00
2022-09-15T16:05:29.637Z,4.20
2022-09-15T16:07:59.615Z,4.13
2022-09-15T16:10:30.473Z,3.72
2022-09-15T16:12:57.327Z,3.20
2022-09-15T16:15:24.151Z,3.35
2022-09-15T16:17:50.905Z,3.03
2022-09-15T16:20:19.823Z,2.97
2022-09-15T16:22:46.791Z,2.72
2022-09-15T16:25:18.586Z,3.45
2022-09-15T16:27:45.402Z,3.13
2022-09-15T16:30:12.416Z,2.80
2022-09-15T16:32:40.588Z,3.22
2022-09-15T16:35:24.338Z,3.67
2022-09-15T16:37:51.081Z,3.03
2022-09-15T16:40:18.011Z,3.00
2022-09-15T16:42:45.195Z,2.58
2022-09-15T16:45:40.609Z,3.08
2022-09-15T16:48:08.495Z,3.22
2022-09-15T16:50:35.647Z,2.65
2022-09-15T16:53:02.445Z,3.08
2022-09-15T16:55:47.018Z,3.05
2022-09-15T16:58:15.474Z,3.25
2022-09-15T17:00:43.570Z,2.65
2022-09-15T17:03:14.573Z,2.90
2022-09-15T17:05:48.545Z,3.05
2022-09-15T17:08:17.030Z,2.70
2022-09-15T17:10:43.759Z,2.88
2022-09-15T17:13:16.327Z,2.75
2022-09-15T17:15:45.826Z,3.40
2022-09-15T17:18:15.324Z,3.03
2022-09-15T17:20:43.623Z,2.95
2022-09-15T17:23:36.933Z,2.40
2022-09-15T17:26:12.303Z,3.00
2022-09-15T17:28:39.663Z,4.30
2022-09-15T17:31:18.219Z,9.60
2022-09-15T17:33:45.754Z,24.92
2022-09-15T17:36:12.475Z,13.50
2022-09-15T17:38:41.045Z,6.43
2022-09-15T17:41:15.091Z,6.50
2022-09-15T17:43:42.030Z,7.30
2022-09-15T17:46:09.011Z,4.10
2022-09-15T17:48:38.585Z,3.67
2022-09-15T17:51:06.408Z,2.88
2022-09-15T17:53:33.180Z,3.40
2022-09-15T17:55:59.889Z,3.03
2022-09-15T17:58:26.854Z,3.85
2022-09-15T18:00:54.448Z,3.00
2022-09-15T18:03:24.807Z,4.00
2022-09-15T18:05:52.217Z,3.00
2022-09-15T18:08:18.830Z,3.63
2022-09-15T18:10:45.492Z,3.10
2022-09-15T18:13:21.160Z,3.90
2022-09-15T18:15:51.156Z,3.47
2022-09-15T18:18:20.536Z,4.40
2022-09-15T18:20:51.610Z,4.38
2022-09-15T18:23:20.849Z,4.22
2022-09-15T18:25:48.500Z,3.60
2022-09-15T18:28:16.254Z,4.35
2022-09-15T18:30:45.407Z,4.47
2022-09-15T18:33:17.909Z,3.65
2022-09-15T18:35:44.849Z,4.15
2022-09-15T18:38:12.436Z,3.60
2022-09-15T18:40:43.287Z,4.35
2022-09-15T18:43:10.084Z,4.35
2022-09-15T18:45:36.857Z,3.70
2022-09-15T18:48:03.611Z,3.38
2022-09-15T18:50:30.296Z,3.58
2022-09-15T18:52:57.047Z,3.90
2022-09-15T18:55:24.779Z,4.13
2022-09-15T18:57:51.646Z,4.97
2022-09-15T19:00:22.538Z,4.40
2022-09-15T19:02:49.371Z,4.78
2022-09-15T19:05:16.738Z,4.93
2022-09-15T19:07:44.773Z,4.43
2022-09-15T19:10:13.127Z,3.20
2022-09-15T19:12:40.232Z,2.78
2022-09-15T19:15:12.061Z,3.40
2022-09-15T19:17:39.471Z,2.30
2022-09-15T19:20:08.279Z,2.20
2022-09-15T19:22:36.192Z,2.55
2022-09-15T19:25:04.413Z,1.90
2022-09-15T19:27:32.112Z,1.95
2022-09-15T19:29:58.773Z,2.70
2022-09-15T19:32:25.788Z,2.85
2022-09-15T19:34:52.901Z,5.47
2022-09-15T19:37:21.204Z,14.10
2022-09-15T19:39:48.758Z,10.60
2022-09-15T19:44:47.853Z,3.28
2022-09-15T19:47:14.590Z,3.50
2022-09-15T19:49:41.573Z,4.00
2022-09-15T19:52:08.509Z,3.00
2022-09-15T19:54:35.271Z,3.10
2022-09-15T19:57:02.657Z,4.00
2022-09-15T19:59:31.605Z,3.90
2022-09-15T20:01:59.600Z,4.15
2022-09-15T20:04:26.678Z,3.10
2022-09-15T20:06:53.462Z,3.15
2022-09-15T20:09:20.208Z,2.55
2022-09-15T20:11:47.000Z,3.55
2022-09-15T20:14:14.408Z,3.00
2022-09-15T20:16:41.717Z,3.58
2022-09-15T20:19:08.374Z,3.17
2022-09-15T20:21:52.750Z,2.80
2022-09-15T20:24:21.094Z,3.80
2022-09-15T20:26:48.485Z,2.65
2022-09-15T20:29:15.224Z,2.53
2022-09-15T20:31:42.607Z,2.95
2022-09-15T20:34:09.402Z,2.70
2022-09-15T20:36:38.782Z,2.78
2022-09-15T20:39:12.953Z,2.88
2022-09-15T20:41:41.105Z,2.85
2022-09-15T20:44:10.940Z,3.00
2022-09-15T20:46:37.856Z,2.90
2022-09-15T20:49:05.394Z,3.45
2022-09-15T20:51:33.763Z,3.33
2022-09-15T20:54:03.611Z,3.40
2022-09-15T20:58:59.563Z,3.58
2022-09-15T21:01:28.866Z,4.28
2022-09-15T21:03:55.838Z,3.53
2022-09-15T21:06:26.263Z,3.50
2022-09-15T21:08:54.831Z,3.85
2022-09-15T21:11:22.081Z,4.25
2022-09-15T21:13:49.465Z,4.15
2022-09-15T21:16:20.633Z,2.38
2022-09-15T21:18:48.751Z,3.65
2022-09-15T21:21:18.849Z,2.58
2022-09-15T21:23:48.156Z,2.17
2022-09-15T21:26:17.295Z,2.40
2022-09-15T21:28:44.929Z,2.78
2022-09-15T21:31:17.437Z,3.00
2022-09-15T21:33:46.019Z,2.80
2022-09-15T21:36:17.572Z,2.35
2022-09-15T21:38:44.865Z,2.85
2022-09-15T21:41:14.450Z,2.60
2022-09-15T21:43:43.214Z,2.60
2022-09-15T21:46:19.969Z,2.97
2022-09-15T21:48:48.021Z,2.67
2022-09-15T21:51:23.984Z,2.20
2022-09-15T21:53:55.044Z,3.42
2022-09-15T21:56:22.286Z,2.95
2022-09-15T21:58:49.393Z,3.05
2022-09-15T22:01:25.332Z,2.67
2022-09-15T22:03:57.659Z,2.50
2022-09-15T22:06:32.647Z,2.50
2022-09-15T22:09:01.432Z,2.60
2022-09-15T22:11:28.845Z,2.37
2022-09-15T22:13:55.777Z,2.35
2022-09-15T22:16:24.380Z,2.30
2022-09-15T22:18:51.862Z,2.55
2022-09-15T22:21:21.013Z,2.13
2022-09-15T22:23:49.253Z,2.30
2022-09-15T22:26:25.401Z,2.00
2022-09-15T22:28:53.153Z,3.00
2022-09-15T22:31:22.999Z,1.88
2022-09-15T22:33:49.985Z,2.15
2022-09-15T22:36:27.933Z,2.50
2022-09-15T22:38:56.472Z,2.25
2022-09-15T22:41:25.782Z,2.53
2022-09-15T22:43:52.537Z,2.45
2022-09-15T22:46:19.823Z,2.60
2022-09-15T22:48:47.208Z,3.13
2022-09-15T22:51:14.884Z,3.60
2022-09-15T22:53:41.753Z,2.95
2022-09-15T22:56:14.683Z,2.10
2022-09-15T22:58:43.863Z,2.38
2022-09-15T23:01:22.686Z,3.40
2022-09-15T23:03:51.290Z,2.10
2022-09-15T23:06:18.511Z,2.00
2022-09-15T23:08:50.268Z,2.03
2022-09-15T23:11:17.113Z,2.72
2022-09-15T23:13:44.394Z,2.30
2022-09-15T23:16:11.235Z,2.13
2022-09-15T23:18:37.875Z,2.40
2022-09-15T23:21:10.384Z,2.70
2022-09-15T23:23:39.151Z,2.08
2022-09-15T23:26:08.361Z,2.08
2022-09-15T23:28:35.377Z,1.42
2022-09-15T23:31:02.362Z,1.95
2022-09-15T23:33:31.281Z,1.98
2022-09-15T23:36:03.021Z,2.27
2022-09-15T23:38:30.066Z,1.83
2022-09-15T23:40:57.018Z,2.00
2022-09-15T23:43:23.814Z,1.85
2022-09-15T23:45:51.258Z,2.08
2022-09-15T23:48:18.014Z,2.38
2022-09-15T23:50:44.767Z,2.20
2022-09-15T23:53:11.664Z,2.30
2022-09-15T23:55:38.367Z,2.00
2022-09-15T23:58:05.400Z,2.10
